createdAt,value
2018-11-22T00:00:53.874Z,52.33
2018-11-22T00:03:54.506Z,47.85
2018-11-22T00:06:52.992Z,46.80
2018-11-22T00:09:50.352Z,52.35
2018-11-22T00:12:48.095Z,51.88
2018-11-22T00:15:45.534Z,58.10
2018-11-22T00:18:42.973Z,50.50
2018-11-22T00:21:40.929Z,50.33
2018-11-22T00:24:39.952Z,50.48
2018-11-22T00:27:37.676Z,47.35
2018-11-22T00:30:35.249Z,48.17
2018-11-22T00:33:33.306Z,50.88
2018-11-22T00:36:31.037Z,50.45
2018-11-22T00:39:28.909Z,51.48
2018-11-22T00:42:26.451Z,51.37
2018-11-22T00:45:25.761Z,56.40
2018-11-22T00:48:23.624Z,51.35
2018-11-22T00:51:21.215Z,54.53
2018-11-22T00:54:19.304Z,56.60
2018-11-22T00:57:17.277Z,57.08
2018-11-22T01:00:18.018Z,54.23
2018-11-22T01:03:15.642Z,58.05
2018-11-22T01:06:13.337Z,55.48
2018-11-22T01:09:15.033Z,56.70
2018-11-22T01:12:13.150Z,60.43
2018-11-22T01:15:11.633Z,57.95
2018-11-22T01:18:09.222Z,54.65
2018-11-22T01:21:07.116Z,57.33
2018-11-22T01:24:04.580Z,56.37
2018-11-22T01:27:13.520Z,58.00
2018-11-22T01:30:18.515Z,61.65
2018-11-22T01:33:17.013Z,56.28
2018-11-22T01:36:14.314Z,52.70
2018-11-22T01:39:13.664Z,55.95
2018-11-22T01:42:11.360Z,59.73
2018-11-22T01:45:14.315Z,59.05
2018-11-22T01:48:12.137Z,55.05
2018-11-22T01:51:10.056Z,56.58
2018-11-22T01:54:11.106Z,56.30
2018-11-22T01:57:09.592Z,53.92
2018-11-22T02:00:15.751Z,59.25
2018-11-22T02:03:14.153Z,54.27
2018-11-22T02:06:11.980Z,53.63
2018-11-22T02:09:12.308Z,51.30
2018-11-22T02:12:10.424Z,52.10
2018-11-22T02:15:12.679Z,54.85
2018-11-22T02:18:10.662Z,58.83
2018-11-22T02:21:08.844Z,54.08
2018-11-22T02:24:06.546Z,56.08
2018-11-22T02:27:04.435Z,61.23
2018-11-22T02:30:01.799Z,54.53
2018-11-22T02:33:00.828Z,56.77
2018-11-22T02:35:58.853Z,55.50
2018-11-22T02:38:57.208Z,56.30
2018-11-22T02:41:54.934Z,57.75
2018-11-22T02:44:52.822Z,59.95
2018-11-22T02:47:50.854Z,56.48
2018-11-22T02:50:48.659Z,54.48
2018-11-22T02:53:46.635Z,64.20
2018-11-22T02:56:44.577Z,62.50
2018-11-22T02:59:42.264Z,62.00
2018-11-22T03:02:40.096Z,59.60
2018-11-22T03:05:37.590Z,60.50
2018-11-22T03:08:35.792Z,63.28
2018-11-22T03:11:34.153Z,62.70
2018-11-22T03:14:31.540Z,67.20
2018-11-22T03:17:29.128Z,58.68
2018-11-22T03:20:27.045Z,63.20
2018-11-22T03:23:24.383Z,58.85
2018-11-22T03:26:21.815Z,61.83
2018-11-22T03:29:19.658Z,57.70
2018-11-22T03:32:17.403Z,54.42
2018-11-22T03:35:17.094Z,62.95
2018-11-22T03:38:15.124Z,56.83
2018-11-22T03:41:13.492Z,56.60
2018-11-22T03:44:10.954Z,57.50
2018-11-22T03:47:08.618Z,56.63
2018-11-22T03:50:08.333Z,58.00
2018-11-22T03:53:06.286Z,57.48
2018-11-22T03:56:03.918Z,60.88
2018-11-22T03:59:01.306Z,57.08
2018-11-22T04:01:59.341Z,52.48
2018-11-22T04:04:57.424Z,57.20
2018-11-22T04:07:55.079Z,49.90
2018-11-22T04:10:52.643Z,56.98
2018-11-22T04:13:50.083Z,57.05
2018-11-22T04:16:47.778Z,55.15
2018-11-22T04:19:45.444Z,54.18
2018-11-22T04:22:43.445Z,48.13
2018-11-22T04:25:41.240Z,53.15
2018-11-22T04:28:39.532Z,60.23
2018-11-22T04:31:37.318Z,53.10
2018-11-22T04:34:35.205Z,55.50
2018-11-22T04:37:33.177Z,57.78
2018-11-22T04:40:32.030Z,56.80
2018-11-22T04:43:29.923Z,53.68
2018-11-22T04:46:27.438Z,57.10
2018-11-22T04:49:25.234Z,54.00
2018-11-22T04:52:22.817Z,54.08
2018-11-22T04:55:20.353Z,56.37
2018-11-22T04:58:18.859Z,52.13
2018-11-22T05:01:16.040Z,55.58
2018-11-22T05:04:15.125Z,58.28
2018-11-22T05:07:13.070Z,54.77
2018-11-22T05:10:17.218Z,60.15
2018-11-22T05:13:14.951Z,57.08
2018-11-22T05:16:15.396Z,52.78
2018-11-22T05:19:13.243Z,56.65
2018-11-22T05:22:11.373Z,59.05
2018-11-22T05:25:13.408Z,60.75
2018-11-22T05:28:11.470Z,59.25
2018-11-22T05:31:09.534Z,69.72
2018-11-22T05:34:07.406Z,65.75
2018-11-22T05:37:05.293Z,67.53
2018-11-22T05:40:03.223Z,60.78
2018-11-22T05:43:01.324Z,67.05
2018-11-22T05:45:58.910Z,69.07
2018-11-22T05:48:56.197Z,70.60
2018-11-22T05:51:56.293Z,71.25
2018-11-22T05:54:53.545Z,71.12
2018-11-22T05:57:51.715Z,74.32
2018-11-22T06:00:49.382Z,74.40
2018-11-22T06:03:47.248Z,71.65
2018-11-22T06:06:47.988Z,66.37
2018-11-22T06:09:47.747Z,68.60
2018-11-22T06:12:45.514Z,74.60
2018-11-22T06:15:42.985Z,65.57
2018-11-22T06:18:40.806Z,70.42
2018-11-22T06:21:38.588Z,68.25
2018-11-22T06:24:35.899Z,64.82
2018-11-22T06:27:33.591Z,75.75
2018-11-22T06:30:32.608Z,70.47
2018-11-22T06:33:30.363Z,71.35
2018-11-22T06:36:27.968Z,67.58
2018-11-22T06:39:26.131Z,70.17
2018-11-22T06:42:24.116Z,76.22
2018-11-22T06:45:25.689Z,68.57
2018-11-22T06:48:23.634Z,68.02
2018-11-22T06:51:21.708Z,71.53
2018-11-22T06:54:20.044Z,73.65
2018-11-22T06:57:19.758Z,84.58
2018-11-22T07:00:22.211Z,71.65
2018-11-22T07:03:20.341Z,72.87
2018-11-22T07:06:19.069Z,58.33
2018-11-22T07:09:16.715Z,63.35
2018-11-22T07:12:15.403Z,64.62
2018-11-22T07:15:16.908Z,67.50
2018-11-22T07:18:14.947Z,65.83
2018-11-22T07:21:13.006Z,70.85
2018-11-22T07:24:10.980Z,62.38
2018-11-22T07:27:08.472Z,66.28
2018-11-22T07:30:07.570Z,70.52
2018-11-22T07:33:05.660Z,64.30
2018-11-22T07:36:03.232Z,69.32
2018-11-22T07:39:00.997Z,67.42
2018-11-22T07:42:00.935Z,67.95
2018-11-22T07:45:00.816Z,68.00
2018-11-22T07:47:59.519Z,67.62
2018-11-22T07:50:57.059Z,70.30
2018-11-22T07:53:54.511Z,66.17
2018-11-22T07:56:52.287Z,68.45
2018-11-22T07:59:50.169Z,69.03
2018-11-22T08:02:48.590Z,77.62
2018-11-22T08:05:46.183Z,103.62
2018-11-22T08:08:43.967Z,72.47
2018-11-22T08:11:44.436Z,64.65
2018-11-22T08:14:42.503Z,68.57
2018-11-22T08:17:40.259Z,62.45
2018-11-22T08:20:40.372Z,63.90
2018-11-22T08:23:37.744Z,64.77
2018-11-22T08:26:35.952Z,69.22
2018-11-22T08:29:34.548Z,68.22
2018-11-22T08:32:31.990Z,66.57
2018-11-22T08:35:29.621Z,62.33
2018-11-22T08:38:27.115Z,70.52
2018-11-22T08:41:24.967Z,62.13
2018-11-22T08:44:23.836Z,65.22
2018-11-22T08:47:21.240Z,60.60
2018-11-22T08:50:20.600Z,61.95
2018-11-22T08:53:17.987Z,62.43
2018-11-22T08:56:16.046Z,64.42
2018-11-22T08:59:13.576Z,70.72
2018-11-22T09:02:11.466Z,65.52
2018-11-22T09:05:11.910Z,64.85
2018-11-22T09:08:10.648Z,70.20
2018-11-22T09:11:08.156Z,60.73
2018-11-22T09:14:06.633Z,63.85
2018-11-22T09:17:03.872Z,65.37
2018-11-22T09:20:01.140Z,63.63
2018-11-22T09:22:58.553Z,66.45
2018-11-22T09:25:56.369Z,63.68
2018-11-22T09:28:55.079Z,67.12
2018-11-22T09:31:53.831Z,58.95
2018-11-22T09:34:52.730Z,62.00
2018-11-22T09:37:50.614Z,58.38
2018-11-22T09:40:48.202Z,59.05
2018-11-22T09:43:45.662Z,67.20
2018-11-22T09:46:43.411Z,66.22
2018-11-22T09:49:41.867Z,77.87
2018-11-22T09:52:40.253Z,62.90
2018-11-22T09:55:38.432Z,62.53
2018-11-22T09:58:36.533Z,61.73
2018-11-22T10:01:34.518Z,69.03
2018-11-22T10:04:32.302Z,69.40
2018-11-22T10:07:29.700Z,66.15
2018-11-22T10:10:29.063Z,59.83
2018-11-22T10:13:27.425Z,64.85
2018-11-22T10:16:25.399Z,61.68
2018-11-22T10:19:23.229Z,66.30
2018-11-22T10:22:21.022Z,61.58
2018-11-22T10:25:18.611Z,59.20
2018-11-22T10:28:16.851Z,68.52
2018-11-22T10:31:16.965Z,68.30
2018-11-22T10:34:16.881Z,64.47
2018-11-22T10:37:14.161Z,62.75
2018-11-22T10:40:19.052Z,66.65
2018-11-22T10:43:16.950Z,61.68
2018-11-22T10:46:14.414Z,59.23
2018-11-22T10:49:11.910Z,62.38
2018-11-22T10:52:09.761Z,58.40
2018-11-22T10:55:10.485Z,61.58
2018-11-22T10:58:08.571Z,57.80
2018-11-22T11:01:23.620Z,60.10
2018-11-22T11:04:32.631Z,58.65
2018-11-22T11:07:48.651Z,58.48
2018-11-22T11:10:47.338Z,61.55
2018-11-22T11:13:44.943Z,59.08
2018-11-22T11:16:42.710Z,60.28
2018-11-22T11:19:40.581Z,62.20
2018-11-22T11:22:38.410Z,59.20
2018-11-22T11:25:35.950Z,57.98
2018-11-22T11:28:34.258Z,62.13
2018-11-22T12:18:01.324Z,58.38
2018-11-22T12:20:43.641Z,61.83
2018-11-22T12:23:26.148Z,55.92
2018-11-22T12:26:08.139Z,61.35
2018-11-22T12:28:49.823Z,59.63
2018-11-22T12:31:31.660Z,58.08
2018-11-22T12:34:14.602Z,56.48
2018-11-22T12:37:00.857Z,58.20
2018-11-22T12:39:42.734Z,61.95
2018-11-22T12:42:24.586Z,55.48
2018-11-22T12:45:09.743Z,64.05
2018-11-22T12:47:51.557Z,57.13
2018-11-22T12:50:33.389Z,57.70
2018-11-22T12:53:15.107Z,61.00
2018-11-22T12:55:57.851Z,63.78
2018-11-22T12:58:39.707Z,64.65
2018-11-22T13:01:21.793Z,63.45
2018-11-22T13:04:03.747Z,61.30
2018-11-22T13:06:45.832Z,61.10
2018-11-22T13:09:28.116Z,57.13
2018-11-22T13:12:10.632Z,58.30
2018-11-22T13:14:53.052Z,55.38
2018-11-22T13:17:34.981Z,57.93
2018-11-22T13:20:18.570Z,59.03
2018-11-22T13:23:00.759Z,58.17
2018-11-22T13:25:42.553Z,61.02
2018-11-22T13:28:24.863Z,55.30
2018-11-22T13:31:07.272Z,64.55
2018-11-22T13:33:49.585Z,56.68
2018-11-22T13:36:31.519Z,60.67
2018-11-22T13:39:13.254Z,59.48
2018-11-22T13:41:55.894Z,60.80
2018-11-22T13:44:39.898Z,57.85
2018-11-22T13:47:21.736Z,59.42
2018-11-22T13:50:04.746Z,52.75
2018-11-22T13:52:48.123Z,57.40
2018-11-22T13:55:30.247Z,58.83
2018-11-22T13:58:12.480Z,66.25
2018-11-22T14:00:54.657Z,55.70
2018-11-22T14:03:36.954Z,62.08
2018-11-22T14:06:22.350Z,61.10
2018-11-22T14:09:07.748Z,57.70
2018-11-22T14:11:49.509Z,60.90
2018-11-22T14:14:32.738Z,57.45
2018-11-22T14:17:14.764Z,66.65
2018-11-22T14:19:57.491Z,63.10
2018-11-22T14:22:39.995Z,61.65
2018-11-22T14:25:21.985Z,55.78
2018-11-22T14:28:04.885Z,62.38
2018-11-22T14:30:47.047Z,61.45
2018-11-22T14:33:29.194Z,62.75
2018-11-22T14:36:11.807Z,60.98
2018-11-22T14:38:53.914Z,64.12
2018-11-22T14:41:35.764Z,64.85
2018-11-22T14:44:17.593Z,64.70
2018-11-22T14:46:59.480Z,61.45
2018-11-22T14:49:42.853Z,66.28
2018-11-22T14:52:24.952Z,64.72
2018-11-22T14:55:07.934Z,62.95
2018-11-22T14:57:49.545Z,63.87
2018-11-22T15:00:31.725Z,61.45
2018-11-22T15:03:14.500Z,67.37
2018-11-22T15:05:57.264Z,65.40
2018-11-22T15:08:39.012Z,63.10
2018-11-22T15:11:21.521Z,66.45
2018-11-22T15:14:03.229Z,63.83
2018-11-22T15:16:45.499Z,66.28
2018-11-22T15:19:27.367Z,70.55
2018-11-22T15:22:09.352Z,73.62
2018-11-22T15:24:51.312Z,69.58
2018-11-22T15:27:33.858Z,62.70
2018-11-22T15:30:17.406Z,70.67
2018-11-22T15:33:00.043Z,74.62
2018-11-22T15:35:42.202Z,67.82
2018-11-22T15:38:24.015Z,79.50
2018-11-22T15:41:06.476Z,80.00
2018-11-22T15:43:48.920Z,74.00
2018-11-22T15:46:31.191Z,91.40
2018-11-22T15:49:14.039Z,76.20
2018-11-22T15:51:55.972Z,83.85
2018-11-22T15:54:37.801Z,83.67
2018-11-22T15:57:19.779Z,78.10
2018-11-22T16:00:02.372Z,84.67
2018-11-22T16:02:44.880Z,75.60
2018-11-22T16:05:27.847Z,75.95
2018-11-22T16:08:09.660Z,78.83
2018-11-22T16:10:52.189Z,78.33
2018-11-22T16:13:34.135Z,88.37
2018-11-22T16:16:15.823Z,77.47
2018-11-22T16:18:57.931Z,82.62
2018-11-22T16:21:40.084Z,89.62
2018-11-22T16:24:22.216Z,83.90
2018-11-22T16:27:05.087Z,81.92
2018-11-22T16:29:47.682Z,78.07
2018-11-22T16:32:29.626Z,89.62
2018-11-22T16:35:13.266Z,84.92
2018-11-22T16:37:55.699Z,89.77
2018-11-22T16:40:38.253Z,83.90
2018-11-22T16:43:20.428Z,81.12
2018-11-22T16:46:02.791Z,82.95
2018-11-22T16:48:45.057Z,79.22
2018-11-22T16:51:26.981Z,87.88
2018-11-22T16:54:09.663Z,84.32
2018-11-22T16:56:51.744Z,83.20
2018-11-22T16:59:33.773Z,83.85
2018-11-22T17:02:17.124Z,75.72
2018-11-22T17:04:58.958Z,76.00
2018-11-22T17:07:42.316Z,82.65
2018-11-22T17:10:26.156Z,75.55
2018-11-22T17:13:08.024Z,91.65
2018-11-22T17:15:50.299Z,75.52
2018-11-22T17:18:32.122Z,76.70
2018-11-22T17:21:14.530Z,79.47
2018-11-22T17:23:56.510Z,69.97
2018-11-22T17:26:38.350Z,75.17
2018-11-22T17:29:21.026Z,79.22
2018-11-22T17:32:03.521Z,83.12
2018-11-22T17:34:45.714Z,76.42
2018-11-22T17:37:28.355Z,78.65
2018-11-22T17:40:21.942Z,77.45
2018-11-22T17:43:04.299Z,79.37
2018-11-22T17:45:48.051Z,69.12
2018-11-22T17:48:30.163Z,74.70
2018-11-22T17:51:11.946Z,84.28
2018-11-22T17:53:54.942Z,87.10
2018-11-22T17:56:37.612Z,85.57
2018-11-22T17:59:19.473Z,85.22
2018-11-22T18:02:02.011Z,77.53
2018-11-22T18:04:44.118Z,76.22
2018-11-22T18:07:26.076Z,71.85
2018-11-22T18:10:11.397Z,71.62
2018-11-22T18:12:54.418Z,76.10
2018-11-22T18:16:11.698Z,76.30
2018-11-22T18:18:53.797Z,70.67
2018-11-22T18:21:35.855Z,74.90
2018-11-22T18:24:17.602Z,75.78
2018-11-22T18:26:59.455Z,76.82
2018-11-22T18:29:41.589Z,80.87
2018-11-22T18:32:23.848Z,75.85
2018-11-22T18:35:07.063Z,74.87
2018-11-22T18:37:49.067Z,74.95
2018-11-22T18:40:33.059Z,70.28
2018-11-22T18:43:15.787Z,87.92
2018-11-22T18:45:57.793Z,75.47
2018-11-22T18:48:40.119Z,78.95
2018-11-22T18:51:23.106Z,81.15
2018-11-22T18:54:05.264Z,83.33
2018-11-22T18:56:47.421Z,76.33
2018-11-22T18:59:29.423Z,73.78
2018-11-22T19:02:12.150Z,74.90
2018-11-22T19:04:54.659Z,78.30
2018-11-22T19:07:37.622Z,73.95
2018-11-22T19:10:23.558Z,71.97
2018-11-22T19:13:07.288Z,78.97
2018-11-22T19:15:49.749Z,79.17
2018-11-22T19:18:32.107Z,77.17
2018-11-22T19:21:14.509Z,91.70
2018-11-22T19:23:56.566Z,84.60
2018-11-22T19:26:38.671Z,72.90
2018-11-22T19:29:20.946Z,65.03
2018-11-22T19:32:03.415Z,75.78
2018-11-22T19:34:45.618Z,67.82
2018-11-22T19:37:28.597Z,73.02
2018-11-22T19:40:15.365Z,73.50
2018-11-22T19:42:59.078Z,70.42
2018-11-22T19:45:44.163Z,74.82
2018-11-22T19:48:25.980Z,72.32
2018-11-22T19:51:09.886Z,70.87
2018-11-22T19:53:53.787Z,70.83
2018-11-22T19:56:36.094Z,72.40
2018-11-22T19:59:19.289Z,68.00
2018-11-22T20:02:01.264Z,68.05
2018-11-22T20:04:43.296Z,67.80
2018-11-22T20:07:25.722Z,67.47
2018-11-22T20:10:16.225Z,71.70
2018-11-22T20:12:57.956Z,66.60
2018-11-22T20:15:40.402Z,69.92
2018-11-22T20:18:23.668Z,65.83
2018-11-22T20:21:06.481Z,71.77
2018-11-22T20:23:48.620Z,75.80
2018-11-22T20:26:30.993Z,66.37
2018-11-22T20:29:13.152Z,72.10
2018-11-22T20:31:55.564Z,67.55
2018-11-22T20:34:37.895Z,63.55
2018-11-22T20:37:19.874Z,72.82
2018-11-22T20:40:01.796Z,66.95
2018-11-22T20:42:44.013Z,65.78
2018-11-22T20:45:26.791Z,66.17
2018-11-22T20:48:09.014Z,67.62
2018-11-22T20:50:51.318Z,70.65
2018-11-22T20:53:33.806Z,68.10
2018-11-22T20:56:16.530Z,75.37
2018-11-22T20:58:59.820Z,68.12
2018-11-22T21:01:42.622Z,69.97
2018-11-22T21:04:24.467Z,64.22
2018-11-22T21:07:06.856Z,70.65
2018-11-22T21:09:48.849Z,70.97
2018-11-22T21:12:31.386Z,75.20
2018-11-22T21:15:17.291Z,67.45
2018-11-22T21:18:00.835Z,69.95
2018-11-22T21:20:42.849Z,71.87
2018-11-22T21:23:24.672Z,69.75
2018-11-22T21:26:14.107Z,66.42
2018-11-22T21:28:49.133Z,70.95
2018-11-22T21:31:30.941Z,70.78
2018-11-22T21:34:13.246Z,74.27
2018-11-22T21:36:55.192Z,70.55
2018-11-22T21:39:37.182Z,72.80
2018-11-22T21:42:19.122Z,67.17
2018-11-22T21:45:01.295Z,77.78
2018-11-22T21:47:43.836Z,73.60
2018-11-22T21:50:26.906Z,63.70
2018-11-22T21:53:09.225Z,69.32
2018-11-22T21:55:51.442Z,66.07
2018-11-22T21:58:34.478Z,69.03
2018-11-22T22:01:16.741Z,65.70
2018-11-22T22:03:59.039Z,68.55
2018-11-22T22:06:41.135Z,69.03
2018-11-22T22:09:23.454Z,72.42
2018-11-22T22:12:05.623Z,75.20
2018-11-22T22:14:47.712Z,69.32
2018-11-22T22:17:29.859Z,71.53
2018-11-22T22:20:17.475Z,75.35
2018-11-22T22:23:00.407Z,69.40
2018-11-22T22:25:42.307Z,77.32
2018-11-22T22:28:24.275Z,73.85
2018-11-22T22:31:06.561Z,68.95
2018-11-22T22:33:48.825Z,69.77
2018-11-22T22:36:31.072Z,73.47
2018-11-22T22:39:13.310Z,70.62
2018-11-22T22:41:55.613Z,78.30
2018-11-22T22:44:37.449Z,72.45
2018-11-22T22:47:19.871Z,70.75
2018-11-22T22:50:01.808Z,75.37
2018-11-22T22:52:44.005Z,75.55
2018-11-22T22:55:25.826Z,72.50
2018-11-22T22:58:08.276Z,76.17
2018-11-22T23:00:51.294Z,67.12
2018-11-22T23:03:33.046Z,75.17
2018-11-22T23:06:15.683Z,68.22
2018-11-22T23:08:58.043Z,73.67
2018-11-22T23:11:39.822Z,73.42
2018-11-22T23:14:21.960Z,72.15
2018-11-22T23:17:03.674Z,72.97
2018-11-22T23:19:45.642Z,66.90
2018-11-22T23:22:27.383Z,69.80
2018-11-22T23:25:10.406Z,69.65
2018-11-22T23:27:52.158Z,77.12
2018-11-22T23:30:35.279Z,72.75
2018-11-22T23:33:17.526Z,70.22
2018-11-22T23:35:59.804Z,74.05
2018-11-22T23:38:41.892Z,75.08
2018-11-22T23:41:23.848Z,71.42
2018-11-22T23:44:06.778Z,70.60
2018-11-22T23:46:49.003Z,67.27
2018-11-22T23:49:30.847Z,73.90
2018-11-22T23:52:12.937Z,74.27
2018-11-22T23:54:54.782Z,74.32
2018-11-22T23:57:37.482Z,71.87
